createdAt,value
2022-08-26T00:00:17.656Z,25.10
2022-08-26T00:01:28.922Z,25.10
2022-08-26T00:02:32.208Z,25.20
2022-08-26T00:03:37.207Z,25.20
2022-08-26T00:04:39.715Z,25.20
2022-08-26T00:05:44.111Z,25.30
2022-08-26T00:06:47.786Z,25.30
2022-08-26T00:07:51.793Z,25.30
2022-08-26T00:08:54.721Z,25.30
2022-08-26T00:09:58.866Z,25.30
2022-08-26T00:11:01.846Z,25.30
2022-08-26T00:12:06.357Z,25.40
2022-08-26T00:13:10.309Z,25.40
2022-08-26T00:14:14.899Z,25.40
2022-08-26T00:15:20.478Z,25.50
2022-08-26T00:16:24.098Z,25.40
2022-08-26T00:17:27.438Z,25.50
2022-08-26T00:18:31.677Z,25.50
2022-08-26T00:19:41.587Z,25.50
2022-08-26T00:20:44.920Z,25.50
2022-08-26T00:21:50.095Z,25.50
2022-08-26T00:22:54.704Z,25.50
2022-08-26T00:23:57.112Z,25.50
2022-08-26T00:25:00.664Z,26.90
2022-08-26T00:26:04.025Z,25.50
2022-08-26T00:27:07.640Z,25.50
2022-08-26T00:28:12.536Z,25.50
2022-08-26T00:29:18.049Z,25.50
2022-08-26T00:30:24.145Z,25.50
2022-08-26T00:31:31.255Z,25.50
2022-08-26T00:32:33.958Z,25.50
2022-08-26T00:33:38.262Z,25.40
2022-08-26T00:34:40.934Z,25.40
2022-08-26T00:35:45.339Z,25.40
2022-08-26T00:36:52.031Z,25.40
2022-08-26T00:37:56.724Z,25.30
2022-08-26T00:39:00.077Z,25.30
2022-08-26T00:40:06.862Z,25.30
2022-08-26T00:41:10.255Z,25.20
2022-08-26T00:42:13.036Z,25.10
2022-08-26T00:43:17.891Z,25.10
2022-08-26T00:44:22.388Z,25.00
2022-08-26T00:45:25.979Z,25.00
2022-08-26T00:46:31.957Z,25.00
2022-08-26T00:47:41.158Z,24.90
2022-08-26T00:48:49.363Z,24.90
2022-08-26T00:49:54.095Z,24.90
2022-08-26T00:51:01.777Z,24.90
2022-08-26T00:52:11.236Z,24.90
2022-08-26T00:53:24.152Z,24.80
2022-08-26T00:54:36.376Z,24.80
2022-08-26T00:55:41.967Z,24.80
2022-08-26T00:56:56.145Z,24.90
2022-08-26T00:57:58.600Z,24.80
2022-08-26T00:59:06.247Z,24.70
2022-08-26T01:00:12.932Z,24.80
2022-08-26T01:01:18.050Z,24.70
2022-08-26T01:02:24.064Z,24.70
2022-08-26T01:03:32.022Z,24.60
2022-08-26T01:04:38.597Z,24.60
2022-08-26T01:05:43.060Z,24.60
2022-08-26T01:06:48.656Z,24.60
2022-08-26T01:07:53.353Z,24.60
2022-08-26T01:08:56.216Z,24.60
2022-08-26T01:10:02.373Z,24.50
2022-08-26T01:11:06.985Z,24.50
2022-08-26T01:12:10.532Z,24.40
2022-08-26T01:13:13.962Z,24.30
2022-08-26T01:14:21.174Z,24.30
2022-08-26T01:15:27.795Z,24.30
2022-08-26T01:16:37.750Z,24.20
2022-08-26T01:17:41.665Z,24.20
2022-08-26T01:18:48.493Z,24.30
2022-08-26T01:19:58.901Z,24.30
2022-08-26T01:21:13.332Z,24.30
2022-08-26T01:22:20.840Z,24.30
2022-08-26T01:23:29.120Z,24.40
2022-08-26T01:24:32.294Z,24.40
2022-08-26T01:25:40.426Z,24.40
2022-08-26T01:26:45.894Z,24.30
2022-08-26T01:27:49.514Z,24.40
2022-08-26T01:29:00.292Z,24.40
2022-08-26T01:30:04.785Z,24.50
2022-08-26T01:31:14.971Z,24.40
2022-08-26T01:32:22.565Z,24.50
2022-08-26T01:33:41.995Z,24.60
2022-08-26T01:34:48.065Z,23.40
2022-08-26T01:35:52.205Z,24.60
2022-08-26T01:37:06.774Z,24.60
2022-08-26T01:38:10.153Z,24.60
2022-08-26T01:39:14.665Z,24.60
2022-08-26T01:40:24.183Z,24.70
2022-08-26T01:41:29.255Z,24.70
2022-08-26T01:42:32.117Z,24.70
2022-08-26T01:43:37.989Z,24.60
2022-08-26T01:44:46.388Z,24.70
2022-08-26T01:45:54.742Z,24.70
2022-08-26T01:46:59.860Z,24.70
2022-08-26T01:48:09.193Z,24.70
2022-08-26T01:49:13.799Z,24.80
2022-08-26T01:50:27.850Z,24.80
2022-08-26T01:51:37.364Z,24.80
2022-08-26T01:52:45.769Z,24.90
2022-08-26T01:53:55.286Z,24.90
2022-08-26T01:55:00.873Z,26.00
2022-08-26T01:56:06.329Z,24.90
2022-08-26T01:57:09.070Z,24.90
2022-08-26T01:58:20.576Z,24.90
2022-08-26T01:59:47.766Z,24.90
2022-08-26T02:00:51.906Z,24.80
2022-08-26T02:01:55.491Z,24.80
2022-08-26T02:03:13.786Z,24.80
2022-08-26T02:04:22.612Z,24.80
2022-08-26T02:05:25.162Z,24.80
2022-08-26T02:06:28.959Z,24.80
2022-08-26T02:07:34.217Z,24.80
2022-08-26T02:08:44.807Z,24.70
2022-08-26T02:09:47.929Z,24.70
2022-08-26T02:10:54.996Z,24.70
2022-08-26T02:12:01.659Z,24.60
2022-08-26T02:13:04.608Z,24.60
2022-08-26T02:14:13.367Z,24.50
2022-08-26T02:15:15.823Z,24.50
2022-08-26T02:16:25.415Z,24.50
2022-08-26T02:17:37.405Z,24.50
2022-08-26T02:18:44.681Z,24.40
2022-08-26T02:19:50.649Z,24.40
2022-08-26T02:20:55.402Z,24.40
2022-08-26T02:22:04.809Z,23.10
2022-08-26T02:23:08.874Z,24.50
2022-08-26T02:24:14.469Z,24.40
2022-08-26T02:25:25.831Z,24.50
2022-08-26T02:26:29.631Z,24.50
2022-08-26T02:27:36.495Z,24.60
2022-08-26T02:28:50.601Z,24.50
2022-08-26T02:29:59.876Z,24.40
2022-08-26T02:31:04.021Z,24.40
2022-08-26T02:32:10.425Z,24.40
2022-08-26T02:33:13.970Z,24.40
2022-08-26T02:34:23.402Z,24.40
2022-08-26T02:35:26.909Z,24.40
2022-08-26T02:36:30.261Z,24.40
2022-08-26T02:37:33.996Z,24.40
2022-08-26T02:38:38.179Z,23.20
2022-08-26T02:39:44.630Z,24.50
2022-08-26T02:40:48.644Z,24.50
2022-08-26T02:41:52.951Z,24.50
2022-08-26T02:42:57.159Z,24.60
2022-08-26T02:44:00.268Z,24.60
2022-08-26T02:45:03.814Z,24.60
2022-08-26T02:46:07.456Z,24.60
2022-08-26T02:47:10.870Z,24.60
2022-08-26T02:48:15.771Z,24.60
2022-08-26T02:49:20.039Z,24.50
2022-08-26T02:50:22.741Z,24.60
2022-08-26T02:51:26.627Z,24.60
2022-08-26T02:52:29.258Z,24.60
2022-08-26T02:53:35.632Z,24.60
2022-08-26T02:54:38.949Z,24.70
2022-08-26T02:55:42.837Z,24.70
2022-08-26T02:56:45.933Z,24.70
2022-08-26T02:57:52.107Z,24.70
2022-08-26T02:58:54.496Z,24.70
2022-08-26T02:59:58.257Z,24.70
2022-08-26T03:01:04.956Z,24.70
2022-08-26T03:02:10.666Z,24.70
2022-08-26T03:03:14.084Z,24.70
2022-08-26T03:04:16.434Z,24.70
2022-08-26T03:05:24.079Z,24.80
2022-08-26T03:06:27.963Z,24.80
2022-08-26T03:07:30.963Z,24.80
2022-08-26T03:08:34.484Z,24.70
2022-08-26T03:09:37.010Z,24.70
2022-08-26T03:10:41.488Z,24.80
2022-08-26T03:11:43.974Z,24.70
2022-08-26T03:12:48.223Z,24.70
2022-08-26T03:13:52.287Z,24.70
2022-08-26T03:14:56.284Z,24.70
2022-08-26T03:16:01.045Z,24.70
2022-08-26T03:17:05.212Z,24.70
2022-08-26T03:18:08.501Z,24.70
2022-08-26T03:19:12.241Z,24.70
2022-08-26T03:20:17.456Z,24.70
2022-08-26T03:21:22.458Z,24.70
2022-08-26T03:22:25.332Z,24.70
2022-08-26T03:23:29.122Z,24.70
2022-08-26T03:24:32.246Z,24.70
2022-08-26T03:25:35.579Z,24.70
2022-08-26T03:26:38.232Z,24.60
2022-08-26T03:27:42.970Z,24.70
2022-08-26T03:29:00.733Z,24.60
2022-08-26T03:30:24.962Z,24.60
2022-08-26T03:31:30.519Z,24.60
2022-08-26T03:32:34.420Z,24.60
2022-08-26T03:33:36.772Z,24.60
2022-08-26T03:34:40.785Z,24.50
2022-08-26T03:35:45.300Z,24.60
2022-08-26T03:36:48.749Z,24.50
2022-08-26T03:37:52.284Z,24.50
2022-08-26T03:38:55.656Z,24.50
2022-08-26T03:39:58.435Z,24.50
2022-08-26T03:41:02.274Z,24.50
2022-08-26T03:42:06.360Z,24.50
2022-08-26T03:43:11.858Z,24.50
2022-08-26T03:44:14.684Z,24.50
2022-08-26T03:45:21.965Z,24.50
2022-08-26T03:46:24.565Z,23.60
2022-08-26T03:47:30.191Z,24.50
2022-08-26T03:48:34.412Z,24.50
2022-08-26T03:49:38.299Z,24.50
2022-08-26T03:50:42.138Z,24.50
2022-08-26T03:51:47.453Z,24.50
2022-08-26T03:52:50.030Z,24.50
2022-08-26T03:53:53.512Z,24.50
2022-08-26T03:54:55.812Z,24.50
2022-08-26T03:55:59.424Z,24.50
2022-08-26T03:57:01.860Z,24.50
2022-08-26T03:58:05.436Z,24.50
2022-08-26T03:59:08.082Z,24.50
2022-08-26T04:00:18.542Z,24.40
2022-08-26T04:01:23.274Z,24.50
2022-08-26T04:02:27.387Z,24.40
2022-08-26T04:03:48.935Z,24.40
2022-08-26T04:04:52.272Z,24.40
2022-08-26T04:05:54.790Z,24.40
2022-08-26T04:07:00.593Z,24.40
2022-08-26T04:08:03.585Z,26.60
2022-08-26T04:09:09.238Z,24.50
2022-08-26T04:10:14.088Z,24.50
2022-08-26T04:11:20.158Z,24.50
2022-08-26T04:12:23.043Z,24.60
2022-08-26T04:13:28.062Z,24.60
2022-08-26T04:14:32.360Z,24.60
2022-08-26T04:15:35.113Z,24.90
2022-08-26T04:16:40.041Z,24.70
2022-08-26T04:17:42.583Z,24.70
2022-08-26T04:18:46.529Z,22.80
2022-08-26T04:19:49.476Z,24.70
2022-08-26T04:20:52.786Z,24.90
2022-08-26T04:21:55.353Z,25.00
2022-08-26T04:22:58.544Z,25.20
2022-08-26T04:24:03.598Z,25.40
2022-08-26T04:25:08.312Z,25.50
2022-08-26T04:26:10.667Z,25.70
2022-08-26T04:27:14.203Z,25.90
2022-08-26T04:28:16.517Z,26.00
2022-08-26T04:29:24.164Z,26.10
2022-08-26T04:30:26.642Z,26.10
2022-08-26T04:31:30.147Z,26.20
2022-08-26T04:32:35.045Z,26.30
2022-08-26T04:33:41.663Z,26.30
2022-08-26T04:34:47.030Z,26.50
2022-08-26T04:35:50.330Z,26.50
2022-08-26T04:36:53.060Z,26.60
2022-08-26T04:37:56.600Z,26.70
2022-08-26T04:39:01.859Z,26.70
2022-08-26T04:40:06.837Z,26.70
2022-08-26T04:41:15.643Z,26.80
2022-08-26T04:42:22.840Z,25.80
2022-08-26T04:43:30.558Z,26.80
2022-08-26T04:44:36.993Z,26.90
2022-08-26T04:45:41.968Z,26.80
2022-08-26T04:46:45.453Z,26.90
2022-08-26T04:47:53.499Z,26.90
2022-08-26T04:48:57.229Z,26.90
2022-08-26T04:50:01.937Z,27.00
2022-08-26T04:51:06.216Z,27.00
2022-08-26T04:52:08.606Z,27.00
2022-08-26T04:53:12.227Z,27.00
2022-08-26T04:54:16.472Z,27.00
2022-08-26T04:55:20.180Z,26.90
2022-08-26T04:56:30.681Z,27.00
2022-08-26T04:57:33.968Z,27.00
2022-08-26T04:58:36.472Z,27.00
2022-08-26T04:59:40.372Z,27.00
2022-08-26T05:00:44.162Z,27.00
2022-08-26T05:01:50.412Z,27.00
2022-08-26T05:02:54.635Z,27.00
2022-08-26T05:03:57.972Z,27.00
2022-08-26T05:05:00.846Z,26.90
2022-08-26T05:06:06.346Z,26.80
2022-08-26T05:07:09.747Z,26.70
2022-08-26T05:08:15.996Z,26.70
2022-08-26T05:09:19.201Z,26.70
2022-08-26T05:10:24.466Z,26.60
2022-08-26T05:11:26.832Z,26.60
2022-08-26T05:12:31.276Z,26.50
2022-08-26T05:13:35.456Z,26.40
2022-08-26T05:14:38.838Z,26.30
2022-08-26T05:15:41.238Z,26.30
2022-08-26T05:16:44.816Z,26.20
2022-08-26T05:17:51.191Z,26.20
2022-08-26T05:18:56.372Z,26.20
2022-08-26T05:19:58.761Z,26.20
2022-08-26T05:21:03.558Z,26.30
2022-08-26T05:22:07.855Z,26.40
2022-08-26T05:23:10.440Z,26.40
2022-08-26T05:24:14.497Z,25.40
2022-08-26T05:25:17.540Z,26.40
2022-08-26T05:26:22.891Z,26.50
2022-08-26T05:27:25.546Z,26.40
2022-08-26T05:28:30.845Z,26.40
2022-08-26T05:29:34.096Z,26.40
2022-08-26T05:30:38.682Z,26.50
2022-08-26T05:31:41.034Z,26.50
2022-08-26T05:32:44.273Z,26.50
2022-08-26T05:33:48.884Z,26.60
2022-08-26T05:34:55.810Z,26.70
2022-08-26T05:35:59.098Z,26.70
2022-08-26T05:37:01.510Z,27.30
2022-08-26T05:38:12.290Z,26.90
2022-08-26T05:39:16.763Z,26.90
2022-08-26T05:40:19.374Z,27.10
2022-08-26T05:41:34.647Z,27.20
2022-08-26T05:42:39.242Z,27.30
2022-08-26T05:43:42.446Z,27.40
2022-08-26T05:44:53.720Z,28.00
2022-08-26T05:46:08.131Z,27.50
2022-08-26T05:47:12.060Z,27.70
2022-08-26T05:48:16.151Z,27.80
2022-08-26T05:49:20.452Z,27.90
2022-08-26T05:50:26.500Z,28.00
2022-08-26T05:51:30.980Z,28.10
2022-08-26T05:52:33.833Z,28.20
2022-08-26T05:53:38.301Z,28.30
2022-08-26T05:54:40.899Z,28.30
2022-08-26T05:55:45.463Z,28.20
2022-08-26T05:56:48.046Z,28.10
2022-08-26T05:57:52.040Z,28.10
2022-08-26T05:58:58.360Z,28.00
2022-08-26T06:00:01.094Z,28.00
2022-08-26T06:01:07.152Z,27.90
2022-08-26T06:02:10.851Z,27.90
2022-08-26T06:03:15.924Z,27.80
2022-08-26T06:04:20.030Z,29.40
2022-08-26T06:05:22.707Z,27.80
2022-08-26T06:06:29.774Z,27.80
2022-08-26T06:07:47.413Z,27.80
2022-08-26T06:08:51.237Z,27.80
2022-08-26T06:10:01.639Z,27.80
2022-08-26T06:11:19.460Z,27.90
2022-08-26T06:12:22.648Z,28.00
2022-08-26T06:13:27.896Z,28.00
2022-08-26T06:14:36.136Z,28.10
2022-08-26T06:15:43.178Z,28.20
2022-08-26T06:16:47.909Z,28.20
2022-08-26T06:17:53.381Z,28.20
2022-08-26T06:18:57.735Z,28.30
2022-08-26T06:20:01.061Z,28.30
2022-08-26T06:21:15.268Z,28.40
2022-08-26T06:22:37.346Z,28.50
2022-08-26T06:23:58.768Z,28.60
2022-08-26T06:25:19.340Z,28.60
2022-08-26T06:26:22.514Z,28.70
2022-08-26T06:27:29.406Z,28.70
2022-08-26T06:28:36.286Z,28.70
2022-08-26T06:29:40.371Z,28.70
2022-08-26T06:30:42.859Z,28.70
2022-08-26T06:31:46.497Z,28.70
2022-08-26T06:32:49.434Z,28.70
2022-08-26T06:33:54.192Z,28.80
2022-08-26T06:34:56.993Z,28.70
2022-08-26T06:36:01.235Z,28.80
2022-08-26T06:37:06.437Z,28.80
2022-08-26T06:38:11.112Z,28.90
2022-08-26T06:39:16.438Z,28.90
2022-08-26T06:40:18.873Z,29.00
2022-08-26T06:41:24.479Z,29.10
2022-08-26T06:42:27.554Z,29.10
2022-08-26T06:43:31.024Z,29.20
2022-08-26T06:44:35.671Z,29.20
2022-08-26T06:45:39.739Z,29.30
2022-08-26T06:46:45.775Z,29.40
2022-08-26T06:47:49.609Z,29.40
2022-08-26T06:48:55.690Z,29.50
2022-08-26T06:49:58.062Z,29.50
2022-08-26T06:51:07.672Z,29.60
2022-08-26T06:52:11.354Z,29.60
2022-08-26T06:53:15.539Z,29.60
2022-08-26T06:54:19.117Z,29.70
2022-08-26T06:55:21.335Z,29.70
2022-08-26T06:56:37.076Z,29.80
2022-08-26T06:57:41.116Z,29.80
2022-08-26T06:58:45.572Z,29.80
2022-08-26T06:59:51.250Z,29.90
2022-08-26T07:00:53.831Z,29.90
2022-08-26T07:01:57.310Z,30.00
2022-08-26T07:02:59.967Z,30.00
2022-08-26T07:04:10.544Z,30.00
2022-08-26T07:05:13.963Z,30.00
2022-08-26T07:06:18.733Z,30.10
2022-08-26T07:07:22.180Z,30.20
2022-08-26T07:08:25.868Z,30.30
2022-08-26T07:09:33.260Z,30.30
2022-08-26T07:10:37.359Z,30.40
2022-08-26T07:11:39.909Z,30.40
2022-08-26T07:12:43.563Z,30.50
2022-08-26T07:13:51.165Z,30.50
2022-08-26T07:14:55.818Z,30.60
2022-08-26T07:16:02.917Z,30.60
2022-08-26T07:17:12.153Z,30.60
2022-08-26T07:18:17.400Z,30.70
2022-08-26T07:19:27.546Z,30.70
2022-08-26T07:20:39.267Z,30.70
2022-08-26T07:21:45.863Z,30.70
2022-08-26T07:22:51.365Z,30.70
2022-08-26T07:24:01.236Z,30.70
2022-08-26T07:25:08.773Z,30.70
2022-08-26T07:26:16.418Z,30.70
2022-08-26T07:27:18.807Z,30.70
2022-08-26T07:28:22.983Z,30.60
2022-08-26T07:29:26.508Z,30.50
2022-08-26T07:30:30.356Z,30.70
2022-08-26T07:31:37.900Z,30.70
2022-08-26T07:32:45.697Z,30.70
2022-08-26T07:33:48.785Z,30.70
2022-08-26T07:34:52.476Z,30.80
2022-08-26T07:35:56.739Z,30.90
2022-08-26T07:36:59.589Z,30.80
2022-08-26T07:38:03.537Z,30.80
2022-08-26T07:39:07.476Z,30.80
2022-08-26T07:40:12.072Z,30.90
2022-08-26T07:41:18.040Z,30.80
2022-08-26T07:42:23.710Z,30.80
2022-08-26T07:43:27.069Z,30.90
2022-08-26T07:44:33.660Z,30.90
2022-08-26T07:45:39.219Z,30.80
2022-08-26T07:46:52.464Z,30.90
2022-08-26T07:49:29.173Z,30.80
2022-08-26T07:50:49.395Z,30.90
2022-08-26T07:51:55.163Z,30.90
2022-08-26T07:52:57.588Z,30.90
2022-08-26T07:54:01.462Z,30.90
2022-08-26T07:55:11.717Z,30.90
2022-08-26T07:56:15.300Z,30.90
2022-08-26T07:57:19.257Z,30.90
2022-08-26T07:58:23.617Z,30.80
2022-08-26T07:59:27.761Z,29.30
2022-08-26T08:00:32.916Z,30.70
2022-08-26T08:01:37.083Z,30.70
2022-08-26T08:02:44.820Z,30.70
2022-08-26T08:03:52.938Z,30.60
2022-08-26T08:04:59.405Z,30.50
2022-08-26T08:06:04.796Z,30.50
2022-08-26T08:07:12.103Z,30.50
2022-08-26T08:08:27.715Z,30.50
2022-08-26T08:09:42.414Z,30.50
2022-08-26T08:10:48.896Z,30.50
2022-08-26T08:11:58.905Z,30.50
2022-08-26T08:13:09.966Z,30.60
2022-08-26T08:14:24.792Z,30.60
2022-08-26T08:15:35.501Z,30.60
2022-08-26T08:16:46.899Z,30.60
2022-08-26T08:17:51.621Z,30.60
2022-08-26T08:18:58.532Z,30.50
2022-08-26T08:20:05.489Z,30.50
2022-08-26T08:21:21.952Z,30.50
2022-08-26T08:22:40.539Z,30.50
2022-08-26T08:23:57.264Z,30.40
2022-08-26T08:25:06.229Z,30.40
2022-08-26T08:26:17.065Z,30.30
2022-08-26T08:27:25.820Z,30.30
2022-08-26T08:28:28.485Z,30.30
2022-08-26T08:29:31.833Z,30.40
2022-08-26T08:30:40.048Z,30.40
2022-08-26T08:31:59.993Z,30.50
2022-08-26T08:33:03.562Z,30.60
2022-08-26T08:34:07.138Z,30.70
2022-08-26T08:35:12.206Z,30.90
2022-08-26T08:36:20.397Z,31.00
2022-08-26T08:37:24.771Z,31.10
2022-08-26T08:38:28.683Z,31.10
2022-08-26T08:39:33.532Z,31.20
2022-08-26T08:40:41.712Z,31.20
2022-08-26T08:42:06.195Z,30.70
2022-08-26T08:43:14.881Z,31.20
2022-08-26T08:44:20.105Z,31.20
2022-08-26T08:45:35.918Z,31.30
2022-08-26T08:46:43.726Z,31.30
2022-08-26T08:47:50.658Z,31.30
2022-08-26T08:49:01.022Z,31.40
2022-08-26T08:50:17.860Z,31.30
2022-08-26T08:51:34.023Z,31.20
2022-08-26T08:52:37.482Z,31.20
2022-08-26T08:53:45.769Z,31.10
2022-08-26T08:54:48.290Z,31.10
2022-08-26T08:56:05.716Z,31.00
2022-08-26T08:57:19.077Z,30.90
2022-08-26T08:58:32.529Z,30.90
2022-08-26T08:59:39.811Z,30.90
2022-08-26T09:00:51.756Z,32.10
2022-08-26T09:02:07.014Z,31.00
2022-08-26T09:03:28.632Z,31.00
2022-08-26T09:05:08.219Z,30.90
2022-08-26T09:06:17.518Z,30.90
2022-08-26T09:07:26.106Z,31.00
2022-08-26T09:08:35.454Z,31.00
2022-08-26T09:09:42.609Z,31.00
2022-08-26T09:10:54.214Z,31.00
2022-08-26T09:11:58.854Z,31.00
2022-08-26T09:13:09.377Z,31.10
2022-08-26T09:14:17.402Z,31.10
2022-08-26T09:15:30.159Z,31.20
2022-08-26T09:16:44.240Z,31.30
2022-08-26T09:17:57.439Z,31.30
2022-08-26T09:19:11.980Z,31.30
2022-08-26T09:20:21.135Z,31.20
2022-08-26T09:21:26.541Z,31.00
2022-08-26T09:22:32.388Z,30.90
2022-08-26T09:23:41.875Z,30.90
2022-08-26T09:24:48.390Z,30.90
2022-08-26T09:26:59.356Z,30.80
2022-08-26T09:28:12.457Z,30.80
2022-08-26T09:29:23.981Z,30.80
2022-08-26T09:30:30.072Z,30.80
2022-08-26T09:31:36.414Z,30.70
2022-08-26T09:32:44.485Z,30.70
2022-08-26T09:34:09.283Z,30.70
2022-08-26T09:35:27.585Z,30.70
2022-08-26T09:36:41.040Z,30.70
2022-08-26T09:38:57.636Z,30.90
2022-08-26T09:40:20.738Z,30.90
2022-08-26T09:41:31.794Z,31.10
2022-08-26T09:42:34.098Z,31.20
2022-08-26T09:43:39.136Z,31.30
2022-08-26T09:44:58.262Z,31.30
2022-08-26T09:46:15.882Z,31.20
2022-08-26T09:47:26.923Z,31.10
2022-08-26T09:48:36.106Z,31.10
2022-08-26T09:49:41.270Z,31.10
2022-08-26T09:50:56.820Z,31.10
2022-08-26T09:52:15.590Z,31.20
2022-08-26T09:53:28.600Z,31.20
2022-08-26T09:54:34.402Z,31.20
2022-08-26T09:55:39.777Z,31.30
2022-08-26T09:56:42.849Z,31.30
2022-08-26T09:57:49.785Z,31.20
2022-08-26T09:58:57.715Z,31.10
2022-08-26T10:00:01.844Z,30.90
2022-08-26T10:01:30.281Z,30.90
2022-08-26T10:02:47.910Z,30.90
2022-08-26T10:03:53.937Z,30.80
2022-08-26T10:04:58.642Z,30.90
2022-08-26T10:06:26.799Z,29.70
2022-08-26T10:07:40.529Z,30.80
2022-08-26T10:08:47.664Z,30.90
2022-08-26T10:09:52.016Z,30.80
2022-08-26T10:10:57.661Z,30.90
2022-08-26T10:12:07.111Z,30.90
2022-08-26T10:13:17.359Z,30.70
2022-08-26T10:14:27.653Z,30.20
2022-08-26T10:15:50.002Z,30.60
2022-08-26T10:17:01.176Z,30.60
2022-08-26T10:18:12.421Z,30.60
2022-08-26T10:19:21.776Z,30.60
2022-08-26T10:20:28.723Z,30.50
2022-08-26T10:21:39.761Z,30.50
2022-08-26T10:22:52.718Z,30.50
2022-08-26T10:24:00.858Z,30.60
2022-08-26T10:25:12.082Z,30.60
2022-08-26T10:26:22.123Z,30.70
2022-08-26T10:27:34.107Z,30.30
2022-08-26T10:28:46.543Z,30.70
2022-08-26T10:30:00.645Z,30.70
2022-08-26T10:31:10.404Z,30.60
2022-08-26T10:32:19.553Z,30.70
2022-08-26T10:33:24.574Z,30.70
2022-08-26T10:34:27.854Z,30.70
2022-08-26T10:35:33.918Z,30.70
2022-08-26T10:37:14.784Z,30.70
2022-08-26T10:38:23.225Z,30.70
2022-08-26T10:39:37.913Z,30.70
2022-08-26T10:40:55.182Z,30.70
2022-08-26T10:42:05.699Z,30.70
2022-08-26T10:43:15.715Z,30.70
2022-08-26T10:44:20.860Z,30.60
2022-08-26T10:45:30.581Z,30.60
2022-08-26T10:46:44.182Z,30.50
2022-08-26T10:47:55.098Z,30.50
2022-08-26T10:49:03.183Z,30.50
2022-08-26T10:50:07.947Z,30.50
2022-08-26T10:51:12.767Z,30.60
2022-08-26T10:52:29.418Z,30.70
2022-08-26T10:53:44.510Z,30.70
2022-08-26T10:54:55.794Z,30.70
2022-08-26T10:56:06.289Z,30.80
2022-08-26T10:57:44.295Z,30.90
2022-08-26T10:59:02.784Z,30.90
2022-08-26T11:00:34.436Z,30.90
2022-08-26T11:01:51.098Z,30.90
2022-08-26T11:03:09.531Z,30.90
2022-08-26T11:04:44.494Z,30.90
2022-08-26T11:06:22.354Z,30.90
2022-08-26T11:07:39.291Z,31.00
2022-08-26T11:08:48.069Z,31.20
2022-08-26T11:09:50.911Z,31.30
2022-08-26T11:10:59.251Z,31.30
2022-08-26T11:12:10.007Z,31.40
2022-08-26T11:13:12.815Z,31.40
2022-08-26T11:14:42.084Z,31.50
2022-08-26T11:16:01.112Z,31.50
2022-08-26T11:17:10.393Z,31.50
2022-08-26T11:18:41.656Z,31.50
2022-08-26T11:20:03.950Z,31.60
2022-08-26T11:21:47.694Z,31.60
2022-08-26T11:22:55.544Z,31.70
2022-08-26T11:23:58.198Z,31.70
2022-08-26T11:25:11.800Z,31.80
2022-08-26T11:26:35.369Z,31.80
2022-08-26T11:28:05.427Z,31.70
2022-08-26T11:29:14.933Z,31.80
2022-08-26T11:31:11.825Z,31.90
2022-08-26T11:32:53.147Z,31.90
2022-08-26T11:34:11.087Z,31.90
2022-08-26T11:35:54.899Z,31.90
2022-08-26T11:37:07.837Z,31.90
2022-08-26T11:38:29.879Z,31.80
2022-08-26T11:39:57.261Z,31.80
2022-08-26T11:41:34.550Z,31.70
2022-08-26T11:42:52.001Z,31.70
2022-08-26T11:44:09.344Z,31.70
2022-08-26T11:45:31.137Z,31.60
2022-08-26T11:47:05.046Z,31.60
2022-08-26T11:48:26.015Z,31.70
2022-08-26T11:49:51.293Z,31.70
2022-08-26T11:51:06.097Z,31.80
2022-08-26T11:52:34.218Z,31.80
2022-08-26T11:54:30.707Z,31.90
2022-08-26T11:55:55.611Z,31.90
2022-08-26T11:57:01.341Z,31.90
2022-08-26T11:58:21.200Z,31.90
2022-08-26T11:59:39.716Z,31.90
2022-08-26T12:00:58.550Z,31.90
2022-08-26T12:02:19.147Z,31.90
2022-08-26T12:04:02.837Z,32.90
2022-08-26T12:05:20.495Z,31.90
2022-08-26T12:06:51.584Z,32.00
2022-08-26T12:08:11.190Z,32.00
2022-08-26T12:09:31.296Z,32.00
2022-08-26T12:10:38.880Z,32.00
2022-08-26T12:11:53.339Z,32.10
2022-08-26T12:13:26.323Z,32.10
2022-08-26T12:14:45.566Z,32.00
2022-08-26T12:16:06.879Z,32.00
2022-08-26T12:17:39.226Z,32.00
2022-08-26T12:18:54.951Z,31.90
2022-08-26T12:20:13.340Z,31.90
2022-08-26T12:21:34.877Z,31.80
2022-08-26T12:22:48.692Z,31.80
2022-08-26T12:24:12.063Z,31.70
2022-08-26T12:25:36.137Z,31.50
2022-08-26T12:27:06.180Z,31.30
2022-08-26T12:28:24.944Z,31.10
2022-08-26T12:29:31.726Z,31.10
2022-08-26T12:31:11.847Z,29.80
2022-08-26T12:32:20.294Z,31.00
2022-08-26T12:33:41.458Z,30.90
2022-08-26T12:34:53.640Z,30.90
2022-08-26T12:35:58.788Z,30.80
2022-08-26T12:37:10.294Z,30.80
2022-08-26T12:38:18.718Z,30.80
2022-08-26T12:39:44.609Z,30.40
2022-08-26T12:41:14.893Z,31.60
2022-08-26T12:42:45.443Z,30.80
2022-08-26T12:44:03.778Z,30.80
2022-08-26T12:45:15.541Z,30.90
2022-08-26T12:46:31.291Z,30.90
2022-08-26T12:47:42.859Z,31.00
2022-08-26T12:48:50.705Z,30.90
2022-08-26T12:50:06.337Z,30.90
2022-08-26T12:51:22.827Z,30.90
2022-08-26T12:52:30.309Z,31.00
2022-08-26T12:53:36.025Z,31.00
2022-08-26T12:54:57.205Z,31.00
2022-08-26T12:56:03.796Z,31.00
2022-08-26T12:57:11.706Z,31.00
2022-08-26T12:58:26.931Z,31.00
2022-08-26T12:59:30.357Z,31.00
2022-08-26T13:00:36.044Z,31.10
2022-08-26T13:01:43.844Z,31.10
2022-08-26T13:02:49.512Z,31.10
2022-08-26T13:03:53.013Z,31.10
2022-08-26T13:05:00.882Z,31.10
2022-08-26T13:06:16.129Z,31.20
2022-08-26T13:07:23.458Z,31.20
2022-08-26T13:08:29.416Z,31.30
2022-08-26T13:09:31.857Z,31.40
2022-08-26T13:10:37.390Z,31.50
2022-08-26T13:11:59.212Z,31.50
2022-08-26T13:13:05.091Z,31.60
2022-08-26T13:14:10.487Z,31.70
2022-08-26T13:15:13.098Z,31.80
2022-08-26T13:16:16.751Z,31.90
2022-08-26T13:17:20.122Z,32.00
2022-08-26T13:18:24.451Z,32.00
2022-08-26T13:19:28.190Z,32.10
2022-08-26T13:20:30.869Z,32.10
2022-08-26T13:21:38.680Z,32.10
2022-08-26T13:23:51.201Z,32.20
2022-08-26T13:24:58.081Z,32.20
2022-08-26T13:26:00.519Z,32.10
2022-08-26T13:27:05.595Z,32.10
2022-08-26T13:28:08.123Z,31.00
2022-08-26T13:29:12.501Z,31.80
2022-08-26T13:30:16.510Z,31.70
2022-08-26T13:31:20.728Z,31.60
2022-08-26T13:32:29.475Z,31.50
2022-08-26T13:33:33.180Z,31.50
2022-08-26T13:34:37.706Z,31.80
2022-08-26T13:35:41.057Z,31.30
2022-08-26T13:36:44.974Z,31.30
2022-08-26T13:37:48.327Z,31.20
2022-08-26T13:38:52.299Z,31.30
2022-08-26T13:39:56.712Z,31.30
2022-08-26T13:41:00.049Z,31.30
2022-08-26T13:42:03.502Z,31.30
2022-08-26T13:43:05.878Z,31.30
2022-08-26T13:44:09.265Z,30.30
2022-08-26T13:45:13.262Z,31.30
2022-08-26T13:46:15.724Z,31.40
2022-08-26T13:47:20.668Z,31.40
2022-08-26T13:48:23.668Z,31.40
2022-08-26T13:49:27.159Z,32.40
2022-08-26T13:50:30.011Z,31.50
2022-08-26T13:51:33.890Z,31.60
2022-08-26T13:52:36.366Z,31.60
2022-08-26T13:53:39.792Z,31.60
2022-08-26T13:54:45.890Z,31.60
2022-08-26T13:55:49.865Z,31.70
2022-08-26T13:56:52.351Z,31.70
2022-08-26T13:57:56.558Z,31.70
2022-08-26T13:59:01.690Z,31.70
2022-08-26T14:00:05.152Z,31.70
2022-08-26T14:01:14.155Z,31.70
2022-08-26T14:02:17.512Z,31.70
2022-08-26T14:03:20.124Z,31.60
2022-08-26T14:04:27.486Z,31.60
2022-08-26T14:05:31.775Z,31.60
2022-08-26T14:06:34.505Z,31.50
2022-08-26T14:07:38.187Z,31.50
2022-08-26T14:08:41.798Z,31.50
2022-08-26T14:09:46.533Z,31.40
2022-08-26T14:10:50.476Z,31.40
2022-08-26T14:11:54.896Z,31.30
2022-08-26T14:12:58.859Z,31.20
2022-08-26T14:14:01.370Z,31.20
2022-08-26T14:15:05.400Z,31.20
2022-08-26T14:16:14.760Z,31.10
2022-08-26T14:17:22.539Z,31.20
2022-08-26T14:18:36.357Z,31.20
2022-08-26T14:19:49.657Z,31.20
2022-08-26T14:20:51.965Z,31.20
2022-08-26T14:21:55.508Z,31.20
2022-08-26T14:23:13.116Z,31.20
2022-08-26T14:24:17.818Z,31.20
2022-08-26T14:25:23.716Z,31.20
2022-08-26T14:26:29.638Z,29.60
2022-08-26T14:27:35.677Z,31.10
2022-08-26T14:28:39.822Z,31.10
2022-08-26T14:29:43.974Z,31.00
2022-08-26T14:30:51.472Z,31.00
2022-08-26T14:31:58.780Z,31.00
2022-08-26T14:33:01.275Z,30.90
2022-08-26T14:34:07.873Z,31.00
2022-08-26T14:35:16.631Z,31.00
2022-08-26T14:36:28.514Z,31.00
2022-08-26T14:37:31.971Z,31.10
2022-08-26T14:38:34.414Z,31.10
2022-08-26T14:39:38.324Z,31.10
2022-08-26T14:40:45.114Z,31.20
2022-08-26T14:41:55.850Z,31.20
2022-08-26T14:43:01.632Z,31.20
2022-08-26T14:44:10.449Z,31.20